Latest Weather Observations for Smithville

IDN60801

Issued at 11:32 am EDT Wednesday 16 January 2019 (issued every 10 minutes, with the page automatically refreshed every 10 minutes)

About weather observations | Map of weather stations | Latest weather observations for NSW | Other Formats
Station Details ID: 046142 Name: SMITHVILLE AWS Lat: -30.07 Lon: 141.01 Height: 94.0 m
Data from the previous 72 hours. | See also: Recent months at Smithville
Date/Time
EDT
Temp
°C
App
Temp
°C
Dew
Point
°C
Rel
Hum
%
Delta-T
°C
Wind Press
QNH
hPa
Press
MSL
hPa
Rain since
9am
mm
Dir  Spd
km/h
Gust
km/h
Spd
kts
Gust
kts
16/11:30am 42.8 - 4.7 10 21.2 - - - - - - - 0.0
16/11:00am 42.2 - 4.3 10 20.9 - - - - - - - 0.0
16/10:30am 41.1 - 4.8 11 20.0 - - - - - - - 0.0
16/10:00am 40.1 - 4.0 11 19.6 - - - - - - - 0.0
16/09:30am 38.9 - 4.4 12 18.7 - - - - - - - 0.0
16/09:00am 36.8 - 4.9 14 17.3 - - - - - - - 0.0
16/08:30am 34.5 - 5.0 16 15.8 - - - - - - - 0.0
16/08:00am 32.2 - 4.9 18 14.4 - - - - - - - 0.0
16/07:30am 31.3 - 4.9 19 13.9 - - - - - - - 0.0
16/07:00am 31.0 - 4.7 19 13.7 - - - - - - - 0.0
16/06:30am 30.8 - 4.5 19 13.7 - - - - - - - 0.0
16/06:00am 29.9 - 4.5 20 13.1 - - - - - - - 0.0
16/05:30am 30.4 - 4.9 20 13.3 - - - - - - - 0.0
16/05:00am 31.7 - 4.5 18 14.2 - - - - - - - 0.0
16/04:30am 32.8 - 4.6 17 14.9 - - - - - - - 0.0
16/04:00am 33.8 - 4.5 16 15.5 - - - - - - - 0.0
16/03:30am 34.4 - 4.0 15 16.0 - - - - - - - 0.0
16/03:00am 35.3 - 4.8 15 16.4 - - - - - - - 0.0
16/02:30am 35.9 - 4.2 14 16.9 - - - - - - - 0.0
16/02:00am 36.4 - 4.6 14 17.1 - - - - - - - 0.0
16/01:30am 36.8 - 3.9 13 17.5 - - - - - - - 0.0
16/01:00am 37.3 - 3.1 12 18.1 - - - - - - - 0.0
16/12:30am 37.6 - 3.4 12 18.2 - - - - - - - 0.0
16/12:00am 37.7 - 2.2 11 18.5 - - - - - - - 0.0
 
Date/Time
EDT
Temp
°C
App
Temp
°C
Dew
Point
°C
Rel
Hum
%
Delta-T
°C
Wind Press
QNH
hPa
Press
MSL
hPa
Rain since
9am
mm
Dir  Spd
km/h
Gust
km/h
Spd
kts
Gust
kts
15/11:30pm 37.4 - 2.0 11 18.4 - - - - - - - 0.0
15/11:00pm 38.8 - 1.7 10 19.3 - - - - - - - 0.0
15/10:30pm 38.8 - 1.7 10 19.3 - - - - - - - 0.0
15/10:00pm 38.3 - 1.3 10 19.1 - - - - - - - 0.0
15/09:30pm 39.1 - 1.9 10 19.5 - - - - - - - 0.0
15/09:00pm 41.2 - 2.0 9 20.8 - - - - - - - 0.0
15/08:30pm 43.0 - 1.7 8 22.0 - - - - - - - 0.0
15/08:00pm 43.9 - 2.4 8 22.4 - - - - - - - 0.0
15/07:30pm 44.6 - 2.9 8 22.8 - - - - - - - 0.0
15/07:00pm 44.9 - 3.1 8 22.9 - - - - - - - 0.0
15/06:30pm 45.1 - 3.2 8 23.0 - - - - - - - 0.0
15/06:00pm 45.0 - 3.2 8 23.0 - - - - - - - 0.0
15/05:30pm 45.1 - 3.2 8 23.0 - - - - - - - 0.0
15/05:00pm 45.8 - 3.7 8 23.4 - - - - - - - 0.0
15/04:30pm 45.0 - 3.2 8 23.0 - - - - - - - 0.0
15/04:00pm 44.8 - 3.0 8 22.9 - - - - - - - 0.0
15/03:30pm 44.5 - 2.8 8 22.7 - - - - - - - 0.0
15/03:00pm 45.2 - 3.3 8 23.1 - - - - - - - 0.0
15/02:30pm 44.0 - 2.4 8 22.5 - - - - - - - 0.0
15/02:00pm 44.0 - 2.4 8 22.5 - - - - - - - 0.0
15/01:30pm 43.5 - 3.7 9 21.9 - - - - - - - 0.0
15/01:00pm 43.3 - 3.6 9 21.8 - - - - - - - 0.0
15/12:30pm 42.7 - 3.1 9 21.5 - - - - - - - 0.0
15/12:00pm 42.0 - 2.6 9 21.2 - - - - - - - 0.0
15/11:30am 41.1 - 2.0 9 20.7 - - - - - - - 0.0
15/11:00am 40.5 - 3.0 10 20.1 - - - - - - - 0.0
15/10:30am 39.6 - 2.3 10 19.7 - - - - - - - 0.0
15/10:00am 39.0 - 1.9 10 19.4 - - - - - - - 0.0
15/09:30am 38.1 - 1.2 10 19.0 - - - - - - - 0.0
15/09:00am 37.0 - 1.7 11 18.2 - - - - - - - 0.0
15/08:30am 35.7 - 1.9 12 17.3 - - - - - - - 0.0
15/08:00am 34.1 - 2.8 14 16.1 - - - - - - - 0.0
15/07:30am 32.6 - 4.4 17 14.8 - - - - - - - 0.0
15/07:00am 32.5 - 4.3 17 14.8 - - - - - - - 0.0
15/06:30am 33.0 - 4.7 17 15.0 - - - - - - - 0.0
15/06:00am 33.5 - 5.1 17 15.2 - - - - - - - 0.0
15/05:30am 31.9 - 5.4 19 14.1 - - - - - - - 0.0
15/05:00am 32.7 - 5.3 18 14.6 - - - - - - - 0.0
15/04:30am 33.4 - 5.0 17 15.1 - - - - - - - 0.0
15/04:00am 34.8 - 5.3 16 15.9 - - - - - - - 0.0
15/03:30am 35.9 - 5.2 15 16.6 - - - - - - - 0.0
15/03:00am 36.9 - 5.0 14 17.3 - - - - - - - 0.0
15/02:30am 37.5 - 4.4 13 17.8 - - - - - - - 0.0
15/02:00am 37.5 - 4.4 13 17.8 - - - - - - - 0.0
15/01:30am 37.6 - 4.5 13 17.9 - - - - - - - 0.0
15/01:00am 37.6 - 4.5 13 17.9 - - - - - - - 0.0
15/12:30am 37.6 - 3.4 12 18.2 - - - - - - - 0.0
15/12:00am 38.8 - 3.1 11 19.0 - - - - - - - 0.0
 
Date/Time
EDT
Temp
°C
App
Temp
°C
Dew
Point
°C
Rel
Hum
%
Delta-T
°C
Wind Press
QNH
hPa
Press
MSL
hPa
Rain since
9am
mm
Dir  Spd
km/h
Gust
km/h
Spd
kts
Gust
kts
14/11:30pm 39.4 - 3.5 11 19.3 - - - - - - - 0.0
14/11:00pm 40.3 - 2.8 10 20.0 - - - - - - - 0.0
14/10:30pm 39.7 - 3.7 11 19.4 - - - - - - - 0.0
14/10:00pm 39.6 - 2.3 10 19.7 - - - - - - - 0.0
14/09:30pm 40.4 - 2.9 10 20.1 - - - - - - - 0.0
14/09:00pm 41.5 - 2.3 9 20.9 - - - - - - - 0.0
14/08:30pm 42.6 - 3.1 9 21.4 - - - - - - - 0.0
14/08:00pm 43.5 - 2.1 8 22.2 - - - - - - - 0.0
14/07:30pm 43.8 - 2.3 8 22.4 - - - - - - - 0.0
14/07:00pm 44.8 - 3.0 8 22.9 - - - - - - - 0.0
14/06:30pm 45.3 - 3.4 8 23.1 - - - - - - - 0.0
14/06:00pm 45.3 - 3.4 8 23.1 - - - - - - - 0.0
14/05:30pm 45.0 - 3.2 8 23.0 - - - - - - - 0.0
14/05:00pm 44.7 - 2.9 8 22.9 - - - - - - - 0.0
14/04:30pm 45.3 - 3.4 8 23.1 - - - - - - - 0.0
14/04:00pm 44.7 - 2.9 8 22.9 - - - - - - - 0.0
14/03:30pm 45.9 - 3.8 8 23.4 - - - - - - - 0.0
14/03:00pm 44.3 - 2.7 8 22.6 - - - - - - - 0.0
14/02:30pm 45.0 - 3.2 8 23.0 - - - - - - - 0.0
14/02:00pm 43.6 - 2.1 8 22.3 - - - - - - - 0.0
14/01:30pm 43.8 - 2.3 8 22.4 - - - - - - - 0.0
14/01:00pm 43.8 - 2.3 8 22.4 - - - - - - - 0.0
14/12:30pm 42.9 - 3.3 9 21.6 - - - - - - - 0.0
14/12:00pm 42.4 - 2.9 9 21.4 - - - - - - - 0.0
14/11:30am 42.3 - 2.8 9 21.3 - - - - - - - 0.0
14/11:00am 41.0 - 3.4 10 20.3 - - - - - - - 0.0
14/10:30am 40.4 - 2.9 10 20.1 - - - - - - - 0.0
14/10:00am 39.6 - 3.7 11 19.4 - - - - - - - 0.0
14/09:30am 38.6 - 4.1 12 18.6 - - - - - - - 0.0
14/09:00am 38.0 - 3.7 12 18.3 - - - - - - - 0.0
14/08:30am 36.5 - 3.7 13 17.4 - - - - - - - 0.0
14/08:00am 33.2 - 4.9 17 15.0 - - - - - - - 0.0
14/07:30am 29.7 - 5.7 22 12.7 - - - - - - - 0.0
14/07:00am 29.9 - 5.9 22 12.7 - - - - - - - 0.0
14/06:30am 30.9 - 6.0 21 13.3 - - - - - - - 0.0
14/06:00am 31.3 - 6.4 21 13.4 - - - - - - - 0.0
14/05:30am 31.7 - 6.0 20 13.8 - - - - - - - 0.0
14/05:00am 31.6 - 5.9 20 13.7 - - - - - - - 0.0
14/04:30am 30.6 - 5.8 21 13.2 - - - - - - - 0.0
14/04:00am 29.9 - 5.9 22 12.7 - - - - - - - 0.0
14/03:30am 30.7 - 5.9 21 13.2 - - - - - - - 0.0
14/03:00am 32.1 - 6.3 20 13.9 - - - - - - - 0.0
14/02:30am 33.0 - 6.3 19 14.5 - - - - - - - 0.0
14/02:00am 33.8 - 5.4 17 15.3 - - - - - - - 0.0
14/01:30am 33.3 - 5.0 17 15.1 - - - - - - - 0.0
14/01:00am 34.3 - 5.8 17 15.4 - - - - - - - 0.0
14/12:30am 32.8 - 4.6 17 14.9 - - - - - - - 0.0
14/12:00am 33.3 - 5.0 17 15.1 - - - - - - - 0.0
 
Date/Time
EDT
Temp
°C
App
Temp
°C
Dew
Point
°C
Rel
Hum
%
Delta-T
°C
Wind Press
QNH
hPa
Press
MSL
hPa
Rain since
9am
mm
Dir  Spd
km/h
Gust
km/h
Spd
kts
Gust
kts
13/11:30pm 34.8 - 5.3 16 15.9 - - - - - - - 0.0
13/11:00pm 35.6 - 5.0 15 16.5 - - - - - - - 0.0
13/10:30pm 36.2 - 5.5 15 16.7 - - - - - - - 0.0
13/10:00pm 37.5 - 5.5 14 17.5 - - - - - - - 0.0
13/09:30pm 39.0 - 5.6 13 18.5 - - - - - - - 0.0
13/09:00pm 39.8 - 5.1 12 19.1 - - - - - - - 0.0
13/08:30pm 40.9 - 3.3 10 20.3 - - - - - - - 0.0
13/08:00pm 42.1 - 4.2 10 20.8 - - - - - - - 0.0
13/07:30pm 42.5 - 4.5 10 21.0 - - - - - - - 0.0
13/07:00pm 42.9 - 4.8 10 21.2 - - - - - - - 0.0
13/06:30pm 43.5 - 5.2 10 21.5 - - - - - - - 0.0
13/06:00pm 44.0 - 5.6 10 21.7 - - - - - - - 0.0
13/05:30pm 43.6 - 5.3 10 21.6 - - - - - - - 0.0
13/05:00pm 43.3 - 5.1 10 21.4 - - - - - - - 0.0
13/04:30pm 43.3 - 5.1 10 21.4 - - - - - - - 0.0
13/04:00pm 44.5 - 6.0 10 22.0 - - - - - - - 0.0
13/03:30pm 42.6 - 5.9 11 20.7 - - - - - - - 0.0
13/03:00pm 43.0 - 6.2 11 20.9 - - - - - - - 0.0
13/02:30pm 42.6 - 5.9 11 20.7 - - - - - - - 0.0
13/02:00pm 41.3 - 6.2 12 19.8 - - - - - - - 0.0
13/01:30pm 41.3 - 6.2 12 19.8 - - - - - - - 0.0
13/01:00pm 40.1 - 6.4 13 19.0 - - - - - - - 0.0
13/12:30pm 39.3 - 6.9 14 18.3 - - - - - - - 0.0
13/12:00pm 37.3 - 7.3 16 16.9 - - - - - - - 0.0

Other Formats:

Comma delimited format used in spreadsheet applications
http://www.bom.gov.au/fwo/IDN60801/IDN60801.94796.axf

JavaScript Object Notation format (JSON) in row-major order
http://www.bom.gov.au/fwo/IDN60801/IDN60801.94796.json